THY9923 LTAC-LTBH
Flight info
| Callsign | THY9923 |
|---|---|
| Flight time | 1h 3m |
| Altitude | 38000 |
| Route | YAVRU UL615 ERSEN UA4 NUMSO UL615 BKZ UN604 BIG |
| Aircraft | A20N/M-SDE2E3FGHIRWXY/LB1 |
Departure
| Time | 2026-04-23 15:13 |
|---|---|
| Airport | Esenboğa International Airport (LTAC) |
Arrival
| Time | 2026-04-23 16:16 |
|---|---|
| Airport | Çanakkale Airport (LTBH) |
| Time | Latitude | Longitude | Altitude | Speed | Heading |
|---|---|---|---|---|---|
| 2026-04-23 14:57 | 40.11603 | 32.99123 | 3126 ft | 0 kts | 147° |
| 2026-04-23 15:05 | 40.11612 | 32.99115 | 3124 ft | 2 kts | 149° |
| 2026-04-23 15:05 | 40.11626 | 32.99105 | 3123 ft | 2 kts | 154° |
| 2026-04-23 15:06 | 40.11641 | 32.99096 | 3126 ft | 2 kts | 162° |
| 2026-04-23 15:06 | 40.11657 | 32.99091 | 3126 ft | 2 kts | 181° |
| 2026-04-23 15:06 | 40.11673 | 32.99096 | 3126 ft | 2 kts | 217° |
| 2026-04-23 15:06 | 40.11683 | 32.99108 | 3126 ft | 1 kts | 235° |
| 2026-04-23 15:07 | 40.11684 | 32.99111 | 3126 ft | 0 kts | 236° |
| 2026-04-23 15:09 | 40.11683 | 32.99108 | 3126 ft | 1 kts | 237° |
| 2026-04-23 15:09 | 40.11674 | 32.99093 | 3126 ft | 5 kts | 235° |
| 2026-04-23 15:10 | 40.11647 | 32.99046 | 3125 ft | 15 kts | 233° |
| 2026-04-23 15:10 | 40.11689 | 32.98824 | 3126 ft | 27 kts | 309° |
| 2026-04-23 15:10 | 40.11718 | 32.98776 | 3126 ft | 0 kts | 307° |
| 2026-04-23 15:11 | 40.11720 | 32.98773 | 3127 ft | 2 kts | 308° |
| 2026-04-23 15:11 | 40.11742 | 32.98734 | 3127 ft | 11 kts | 305° |
| 2026-04-23 15:12 | 40.11834 | 32.98707 | 3127 ft | 20 kts | 41° |
| 2026-04-23 15:12 | 40.11895 | 32.98781 | 3130 ft | 0 kts | 34° |
| 2026-04-23 15:13 | 40.11985 | 32.98864 | 3131 ft | 54 kts | 35° |
| 2026-04-23 15:13 | 40.12524 | 32.99375 | 3129 ft | 134 kts | 36° |
| 2026-04-23 15:13 | 40.13433 | 33.00221 | 3393 ft | 175 kts | 33° |
| 2026-04-23 15:13 | 40.14430 | 33.01133 | 4311 ft | 181 kts | 33° |
| 2026-04-23 15:14 | 40.15517 | 33.02163 | 4834 ft | 207 kts | 35° |
| 2026-04-23 15:14 | 40.16725 | 33.03367 | 5412 ft | 229 kts | 37° |
| 2026-04-23 15:14 | 40.18036 | 33.04711 | 6081 ft | 250 kts | 37° |
| 2026-04-23 15:14 | 40.19420 | 33.06138 | 6998 ft | 256 kts | 34° |
| 2026-04-23 15:15 | 40.21057 | 33.07011 | 7995 ft | 259 kts | 7° |
| 2026-04-23 15:15 | 40.22842 | 33.06798 | 8946 ft | 262 kts | 340° |
| 2026-04-23 15:15 | 40.24373 | 33.05533 | 9889 ft | 265 kts | 314° |
| 2026-04-23 15:15 | 40.25595 | 33.03649 | 10565 ft | 283 kts | 307° |
| 2026-04-23 15:16 | 40.26808 | 33.01496 | 11000 ft | 307 kts | 306° |
| 2026-04-23 15:16 | 40.28119 | 32.99162 | 11376 ft | 331 kts | 307° |
| 2026-04-23 15:16 | 40.29549 | 32.96695 | 11779 ft | 347 kts | 308° |
| 2026-04-23 15:16 | 40.31032 | 32.94204 | 11951 ft | 347 kts | 308° |
| 2026-04-23 15:17 | 40.32527 | 32.91725 | 12001 ft | 347 kts | 308° |
| 2026-04-23 15:17 | 40.33958 | 32.89177 | 12000 ft | 349 kts | 301° |
| 2026-04-23 15:17 | 40.35038 | 32.86338 | 12000 ft | 349 kts | 291° |
| 2026-04-23 15:17 | 40.35720 | 32.83298 | 12001 ft | 348 kts | 283° |
| 2026-04-23 15:18 | 40.36281 | 32.80227 | 12000 ft | 347 kts | 283° |
| 2026-04-23 15:18 | 40.36853 | 32.77156 | 12000 ft | 347 kts | 284° |
| 2026-04-23 15:18 | 40.37429 | 32.74083 | 12081 ft | 349 kts | 284° |
| 2026-04-23 15:18 | 40.38010 | 32.70978 | 12741 ft | 352 kts | 284° |
| 2026-04-23 15:19 | 40.38590 | 32.67865 | 13709 ft | 353 kts | 284° |
| 2026-04-23 15:19 | 40.39176 | 32.64717 | 14504 ft | 359 kts | 283° |
| 2026-04-23 15:19 | 40.39769 | 32.61522 | 15350 ft | 362 kts | 283° |
| 2026-04-23 15:19 | 40.40366 | 32.58296 | 16102 ft | 368 kts | 283° |
| 2026-04-23 15:20 | 40.40769 | 32.56117 | 16565 ft | 372 kts | 283° |
| 2026-04-23 15:20 | 40.41585 | 32.51701 | 17533 ft | 377 kts | 283° |
| 2026-04-23 15:20 | 40.42204 | 32.48338 | 18205 ft | 382 kts | 283° |
| 2026-04-23 15:20 | 40.42828 | 32.44949 | 18957 ft | 384 kts | 283° |
| 2026-04-23 15:21 | 40.43455 | 32.41537 | 19657 ft | 387 kts | 283° |
| 2026-04-23 15:21 | 40.44088 | 32.38085 | 20313 ft | 392 kts | 283° |
| 2026-04-23 15:21 | 40.44727 | 32.34597 | 20944 ft | 396 kts | 283° |
| 2026-04-23 15:21 | 40.45371 | 32.31070 | 21554 ft | 400 kts | 283° |
| 2026-04-23 15:22 | 40.46021 | 32.27508 | 22158 ft | 404 kts | 283° |
| 2026-04-23 15:22 | 40.46678 | 32.23898 | 22696 ft | 409 kts | 283° |
| 2026-04-23 15:22 | 40.47367 | 32.20275 | 23315 ft | 412 kts | 287° |
| 2026-04-23 15:22 | 40.48340 | 32.16717 | 23794 ft | 417 kts | 291° |
| 2026-04-23 15:23 | 40.49406 | 32.13165 | 24333 ft | 421 kts | 291° |
| 2026-04-23 15:23 | 40.50476 | 32.09576 | 24799 ft | 425 kts | 291° |
| 2026-04-23 15:23 | 40.51550 | 32.05953 | 25312 ft | 427 kts | 291° |
| 2026-04-23 15:23 | 40.52628 | 32.02308 | 25833 ft | 430 kts | 291° |
| 2026-04-23 15:24 | 40.53711 | 31.98639 | 26284 ft | 433 kts | 291° |
| 2026-04-23 15:24 | 40.54803 | 31.94936 | 26667 ft | 438 kts | 291° |
| 2026-04-23 15:24 | 40.55905 | 31.91192 | 27046 ft | 441 kts | 291° |
| 2026-04-23 15:24 | 40.57015 | 31.87420 | 27403 ft | 444 kts | 291° |
| 2026-04-23 15:25 | 40.58123 | 31.83636 | 27881 ft | 445 kts | 290° |
| 2026-04-23 15:25 | 40.59104 | 31.79761 | 28178 ft | 450 kts | 288° |
| 2026-04-23 15:25 | 40.60072 | 31.75846 | 28507 ft | 452 kts | 288° |
| 2026-04-23 15:25 | 40.61045 | 31.71922 | 29005 ft | 452 kts | 288° |
| 2026-04-23 15:26 | 40.62019 | 31.67992 | 29409 ft | 453 kts | 288° |
| 2026-04-23 15:26 | 40.62995 | 31.64045 | 29749 ft | 457 kts | 288° |
| 2026-04-23 15:26 | 40.63980 | 31.60056 | 30023 ft | 461 kts | 288° |
| 2026-04-23 15:26 | 40.64967 | 31.56047 | 30463 ft | 460 kts | 288° |
| 2026-04-23 15:27 | 40.65950 | 31.52048 | 30897 ft | 461 kts | 288° |
| 2026-04-23 15:27 | 40.66938 | 31.48023 | 31240 ft | 463 kts | 288° |
| 2026-04-23 15:27 | 40.67926 | 31.43990 | 31625 ft | 464 kts | 288° |
| 2026-04-23 15:27 | 40.68912 | 31.39957 | 32046 ft | 464 kts | 288° |
| 2026-04-23 15:28 | 40.69897 | 31.35919 | 32432 ft | 464 kts | 288° |
| 2026-04-23 15:28 | 40.70879 | 31.31890 | 32923 ft | 461 kts | 288° |
| 2026-04-23 15:28 | 40.71851 | 31.27895 | 33421 ft | 458 kts | 288° |
| 2026-04-23 15:28 | 40.72820 | 31.23907 | 33831 ft | 456 kts | 288° |
| 2026-04-23 15:29 | 40.73780 | 31.19946 | 34273 ft | 454 kts | 288° |
| 2026-04-23 15:29 | 40.74739 | 31.15986 | 34526 ft | 456 kts | 288° |
| 2026-04-23 15:29 | 40.75699 | 31.12017 | 34901 ft | 454 kts | 288° |
| 2026-04-23 15:29 | 40.76650 | 31.08079 | 35364 ft | 450 kts | 287° |
| 2026-04-23 15:30 | 40.77595 | 31.04156 | 35695 ft | 449 kts | 287° |
| 2026-04-23 15:30 | 40.78537 | 31.00241 | 35983 ft | 449 kts | 287° |
| 2026-04-23 15:30 | 40.79477 | 30.96325 | 36243 ft | 449 kts | 287° |
| 2026-04-23 15:30 | 40.80421 | 30.92389 | 36397 ft | 451 kts | 287° |
| 2026-04-23 15:31 | 40.81363 | 30.88453 | 36710 ft | 450 kts | 287° |
| 2026-04-23 15:31 | 40.82302 | 30.84524 | 36952 ft | 450 kts | 287° |
| 2026-04-23 15:31 | 40.83239 | 30.80595 | 37209 ft | 449 kts | 287° |
| 2026-04-23 15:31 | 40.84176 | 30.76660 | 37380 ft | 451 kts | 287° |
| 2026-04-23 15:32 | 40.85114 | 30.72712 | 37564 ft | 452 kts | 287° |
| 2026-04-23 15:32 | 40.86050 | 30.68771 | 37855 ft | 450 kts | 287° |
| 2026-04-23 15:32 | 40.86892 | 30.64812 | 37979 ft | 448 kts | 283° |
| 2026-04-23 15:33 | 40.88305 | 30.56833 | 38000 ft | 446 kts | 283° |
| 2026-04-23 15:33 | 40.89732 | 30.48865 | 38000 ft | 447 kts | 283° |
| 2026-04-23 15:34 | 40.91151 | 30.40895 | 38000 ft | 446 kts | 283° |
| 2026-04-23 15:34 | 40.92562 | 30.32921 | 38000 ft | 447 kts | 283° |
| 2026-04-23 15:35 | 40.93970 | 30.24934 | 38000 ft | 447 kts | 283° |
| 2026-04-23 15:35 | 40.95372 | 30.16939 | 38000 ft | 447 kts | 283° |
| 2026-04-23 15:36 | 40.96770 | 30.08937 | 37999 ft | 447 kts | 283° |
| 2026-04-23 15:36 | 40.98162 | 30.00932 | 38002 ft | 448 kts | 283° |
| 2026-04-23 15:37 | 40.99543 | 29.92915 | 38001 ft | 448 kts | 282° |
| 2026-04-23 15:37 | 41.00676 | 29.86228 | 37999 ft | 448 kts | 282° |
| 2026-04-23 15:38 | 41.02259 | 29.76858 | 38001 ft | 448 kts | 282° |
| 2026-04-23 15:38 | 41.03611 | 29.68822 | 38005 ft | 448 kts | 282° |
| 2026-04-23 15:39 | 41.04959 | 29.60785 | 38007 ft | 448 kts | 282° |
| 2026-04-23 15:39 | 41.06312 | 29.52746 | 38002 ft | 448 kts | 282° |
| 2026-04-23 15:40 | 41.07661 | 29.44702 | 38005 ft | 448 kts | 282° |
| 2026-04-23 15:40 | 41.09003 | 29.36658 | 38005 ft | 448 kts | 282° |
| 2026-04-23 15:41 | 41.10339 | 29.28609 | 38011 ft | 448 kts | 282° |
| 2026-04-23 15:41 | 41.11459 | 29.20518 | 38005 ft | 447 kts | 273° |
| 2026-04-23 15:42 | 41.10857 | 29.12368 | 37996 ft | 447 kts | 254° |
| 2026-04-23 15:42 | 41.08356 | 29.04890 | 37999 ft | 446 kts | 238° |
| 2026-04-23 15:43 | 41.05112 | 28.97903 | 37994 ft | 446 kts | 238° |
| 2026-04-23 15:43 | 41.01877 | 28.90903 | 37997 ft | 446 kts | 238° |
| 2026-04-23 15:44 | 40.98632 | 28.83913 | 38000 ft | 447 kts | 238° |
| 2026-04-23 15:44 | 40.95381 | 28.76929 | 38002 ft | 447 kts | 238° |
| 2026-04-23 15:45 | 40.92123 | 28.69947 | 38004 ft | 447 kts | 238° |
| 2026-04-23 15:45 | 40.88860 | 28.62971 | 37843 ft | 447 kts | 238° |
| 2026-04-23 15:45 | 40.87229 | 28.59491 | 37590 ft | 446 kts | 238° |
| 2026-04-23 15:46 | 40.85602 | 28.56023 | 37349 ft | 445 kts | 238° |
| 2026-04-23 15:46 | 40.83975 | 28.52559 | 37101 ft | 445 kts | 238° |
| 2026-04-23 15:46 | 40.82345 | 28.49092 | 36850 ft | 445 kts | 238° |
| 2026-04-23 15:46 | 40.80715 | 28.45627 | 36602 ft | 445 kts | 238° |
| 2026-04-23 15:47 | 40.79081 | 28.42161 | 36266 ft | 446 kts | 238° |
| 2026-04-23 15:47 | 40.77446 | 28.38696 | 35820 ft | 445 kts | 238° |
| 2026-04-23 15:47 | 40.75813 | 28.35237 | 35373 ft | 445 kts | 238° |
| 2026-04-23 15:47 | 40.74178 | 28.31779 | 34925 ft | 446 kts | 238° |
| 2026-04-23 15:48 | 40.72538 | 28.28314 | 34478 ft | 447 kts | 238° |
| 2026-04-23 15:48 | 40.70890 | 28.24835 | 34024 ft | 448 kts | 238° |
| 2026-04-23 15:48 | 40.69239 | 28.21356 | 33582 ft | 449 kts | 238° |
| 2026-04-23 15:48 | 40.67585 | 28.17873 | 33133 ft | 450 kts | 238° |
| 2026-04-23 15:49 | 40.65926 | 28.14384 | 32685 ft | 451 kts | 238° |
| 2026-04-23 15:49 | 40.64263 | 28.10890 | 32237 ft | 452 kts | 238° |
| 2026-04-23 15:49 | 40.62595 | 28.07389 | 31792 ft | 453 kts | 238° |
| 2026-04-23 15:49 | 40.60925 | 28.03886 | 31341 ft | 453 kts | 238° |
| 2026-04-23 15:50 | 40.59248 | 28.00377 | 30879 ft | 454 kts | 238° |
| 2026-04-23 15:50 | 40.57569 | 27.96864 | 30443 ft | 454 kts | 238° |
| 2026-04-23 15:50 | 40.55896 | 27.93369 | 29996 ft | 451 kts | 238° |
| 2026-04-23 15:50 | 40.54234 | 27.89901 | 29544 ft | 447 kts | 238° |
| 2026-04-23 15:51 | 40.52586 | 27.86465 | 29097 ft | 443 kts | 238° |
| 2026-04-23 15:51 | 40.50949 | 27.83057 | 28652 ft | 440 kts | 238° |
| 2026-04-23 15:51 | 40.49321 | 27.79671 | 28200 ft | 439 kts | 238° |
| 2026-04-23 15:51 | 40.47695 | 27.76291 | 27752 ft | 437 kts | 238° |
| 2026-04-23 15:52 | 40.46080 | 27.72940 | 27303 ft | 434 kts | 238° |
| 2026-04-23 15:52 | 40.44478 | 27.69619 | 26870 ft | 429 kts | 238° |
| 2026-04-23 15:52 | 40.42894 | 27.66338 | 26401 ft | 425 kts | 238° |
| 2026-04-23 15:52 | 40.41320 | 27.63082 | 25955 ft | 422 kts | 238° |
| 2026-04-23 15:53 | 40.39754 | 27.59847 | 25455 ft | 420 kts | 238° |
| 2026-04-23 15:53 | 40.38194 | 27.56625 | 24831 ft | 418 kts | 238° |
| 2026-04-23 15:53 | 40.36644 | 27.53429 | 24258 ft | 413 kts | 238° |
| 2026-04-23 15:53 | 40.35119 | 27.50288 | 23812 ft | 406 kts | 238° |
| 2026-04-23 15:54 | 40.33609 | 27.47179 | 23359 ft | 405 kts | 238° |
| 2026-04-23 15:54 | 40.32099 | 27.44074 | 22904 ft | 404 kts | 237° |
| 2026-04-23 15:54 | 40.30596 | 27.40987 | 22455 ft | 401 kts | 238° |
| 2026-04-23 15:54 | 40.29326 | 27.37766 | 22011 ft | 397 kts | 249° |
| 2026-04-23 15:55 | 40.28600 | 27.34303 | 21563 ft | 395 kts | 261° |
| 2026-04-23 15:55 | 40.28416 | 27.30738 | 21118 ft | 392 kts | 270° |
| 2026-04-23 15:55 | 40.28425 | 27.27184 | 20672 ft | 390 kts | 270° |
| 2026-04-23 15:55 | 40.28426 | 27.23660 | 20219 ft | 387 kts | 270° |
| 2026-04-23 15:56 | 40.28422 | 27.20160 | 19771 ft | 384 kts | 270° |
| 2026-04-23 15:56 | 40.28414 | 27.16681 | 19322 ft | 382 kts | 270° |
| 2026-04-23 15:56 | 40.28404 | 27.13223 | 18873 ft | 379 kts | 270° |
| 2026-04-23 15:56 | 40.28393 | 27.09791 | 18424 ft | 376 kts | 270° |
| 2026-04-23 15:57 | 40.28381 | 27.06383 | 17974 ft | 374 kts | 270° |
| 2026-04-23 15:57 | 40.28368 | 27.02995 | 17526 ft | 371 kts | 270° |
| 2026-04-23 15:57 | 40.28355 | 26.99631 | 17077 ft | 369 kts | 270° |
| 2026-04-23 15:57 | 40.28340 | 26.96284 | 16628 ft | 367 kts | 270° |
| 2026-04-23 15:58 | 40.28325 | 26.92954 | 16171 ft | 365 kts | 270° |
| 2026-04-23 15:58 | 40.28309 | 26.89645 | 15719 ft | 363 kts | 270° |
| 2026-04-23 15:58 | 40.28292 | 26.86350 | 15289 ft | 362 kts | 269° |
| 2026-04-23 15:58 | 40.28275 | 26.83078 | 14815 ft | 358 kts | 269° |
| 2026-04-23 15:59 | 40.28257 | 26.79840 | 14266 ft | 355 kts | 269° |
| 2026-04-23 15:59 | 40.28240 | 26.76631 | 13718 ft | 352 kts | 269° |
| 2026-04-23 15:59 | 40.28221 | 26.73456 | 13156 ft | 346 kts | 269° |
| 2026-04-23 15:59 | 40.28203 | 26.70384 | 12807 ft | 328 kts | 269° |
| 2026-04-23 16:00 | 40.28184 | 26.67495 | 12613 ft | 308 kts | 269° |
| 2026-04-23 16:00 | 40.28166 | 26.64765 | 12306 ft | 294 kts | 269° |
| 2026-04-23 16:00 | 40.28148 | 26.62139 | 11931 ft | 284 kts | 269° |
| 2026-04-23 16:00 | 40.28131 | 26.59599 | 11554 ft | 275 kts | 269° |
| 2026-04-23 16:01 | 40.28113 | 26.57137 | 11176 ft | 267 kts | 269° |
| 2026-04-23 16:01 | 40.28095 | 26.54759 | 10780 ft | 257 kts | 269° |
| 2026-04-23 16:01 | 40.28077 | 26.52426 | 10286 ft | 257 kts | 269° |
| 2026-04-23 16:01 | 40.28059 | 26.50086 | 9797 ft | 258 kts | 269° |
| 2026-04-23 16:02 | 40.28040 | 26.47735 | 9300 ft | 259 kts | 269° |
| 2026-04-23 16:02 | 40.28020 | 26.45381 | 8810 ft | 259 kts | 269° |
| 2026-04-23 16:02 | 40.28000 | 26.43029 | 8367 ft | 258 kts | 269° |
| 2026-04-23 16:02 | 40.27976 | 26.40713 | 7977 ft | 251 kts | 267° |
| 2026-04-23 16:03 | 40.27543 | 26.38576 | 7641 ft | 239 kts | 240° |
| 2026-04-23 16:03 | 40.26493 | 26.36976 | 7341 ft | 228 kts | 220° |
| 2026-04-23 16:03 | 40.25312 | 26.35650 | 7034 ft | 220 kts | 221° |
| 2026-04-23 16:03 | 40.24180 | 26.34365 | 6782 ft | 209 kts | 221° |
| 2026-04-23 16:04 | 40.23129 | 26.33167 | 6520 ft | 194 kts | 221° |
| 2026-04-23 16:04 | 40.22108 | 26.32003 | 6230 ft | 197 kts | 221° |
| 2026-04-23 16:04 | 40.21078 | 26.30830 | 5926 ft | 195 kts | 221° |
| 2026-04-23 16:04 | 40.20060 | 26.29672 | 5629 ft | 194 kts | 221° |
| 2026-04-23 16:05 | 40.19384 | 26.28903 | 5422 ft | 193 kts | 221° |
| 2026-04-23 16:05 | 40.18036 | 26.27371 | 5027 ft | 192 kts | 221° |
| 2026-04-23 16:05 | 40.17031 | 26.26230 | 4731 ft | 191 kts | 221° |
| 2026-04-23 16:05 | 40.16030 | 26.25093 | 4433 ft | 190 kts | 221° |
| 2026-04-23 16:06 | 40.15035 | 26.23963 | 4140 ft | 190 kts | 221° |
| 2026-04-23 16:06 | 40.14042 | 26.22837 | 3828 ft | 189 kts | 221° |
| 2026-04-23 16:06 | 40.13055 | 26.21719 | 3566 ft | 187 kts | 221° |
| 2026-04-23 16:06 | 40.12075 | 26.20608 | 3513 ft | 187 kts | 221° |
| 2026-04-23 16:07 | 40.11089 | 26.19492 | 3507 ft | 188 kts | 221° |
| 2026-04-23 16:07 | 40.10102 | 26.18374 | 3503 ft | 188 kts | 221° |
| 2026-04-23 16:07 | 40.09115 | 26.17257 | 3503 ft | 188 kts | 221° |
| 2026-04-23 16:07 | 40.08129 | 26.16141 | 3508 ft | 188 kts | 221° |
| 2026-04-23 16:08 | 40.07141 | 26.15024 | 3506 ft | 187 kts | 221° |
| 2026-04-23 16:08 | 40.06188 | 26.13947 | 3508 ft | 178 kts | 221° |
| 2026-04-23 16:08 | 40.05193 | 26.13010 | 3504 ft | 178 kts | 200° |
| 2026-04-23 16:08 | 40.03986 | 26.13009 | 3510 ft | 179 kts | 160° |
| 2026-04-23 16:09 | 40.03042 | 26.14012 | 3511 ft | 175 kts | 130° |
| 2026-04-23 16:09 | 40.02259 | 26.15230 | 3508 ft | 175 kts | 130° |
| 2026-04-23 16:09 | 40.01473 | 26.16441 | 3508 ft | 175 kts | 130° |
| 2026-04-23 16:09 | 40.00682 | 26.17644 | 3504 ft | 175 kts | 131° |
| 2026-04-23 16:10 | 39.99885 | 26.18843 | 3509 ft | 175 kts | 131° |
| 2026-04-23 16:10 | 39.99086 | 26.20039 | 3510 ft | 175 kts | 131° |
| 2026-04-23 16:10 | 39.98287 | 26.21234 | 3512 ft | 175 kts | 130° |
| 2026-04-23 16:10 | 39.97750 | 26.22639 | 3380 ft | 175 kts | 101° |
| 2026-04-23 16:11 | 39.97840 | 26.24168 | 3133 ft | 169 kts | 70° |
| 2026-04-23 16:11 | 39.98494 | 26.25416 | 2886 ft | 168 kts | 41° |
| 2026-04-23 16:11 | 39.99386 | 26.26393 | 2666 ft | 167 kts | 39° |
| 2026-04-23 16:11 | 40.00251 | 26.27357 | 2510 ft | 158 kts | 40° |
| 2026-04-23 16:12 | 40.01113 | 26.28219 | 2511 ft | 157 kts | 34° |
| 2026-04-23 16:12 | 40.01974 | 26.29060 | 2503 ft | 149 kts | 38° |
| 2026-04-23 16:12 | 40.02757 | 26.29911 | 2506 ft | 145 kts | 40° |
| 2026-04-23 16:12 | 40.03502 | 26.30769 | 2419 ft | 143 kts | 40° |
| 2026-04-23 16:13 | 40.04237 | 26.31620 | 2241 ft | 139 kts | 41° |
| 2026-04-23 16:13 | 40.05649 | 26.33258 | 1887 ft | 136 kts | 41° |
| 2026-04-23 16:13 | 40.06351 | 26.34073 | 1710 ft | 135 kts | 41° |
| 2026-04-23 16:14 | 40.07050 | 26.34884 | 1531 ft | 135 kts | 41° |
| 2026-04-23 16:14 | 40.07739 | 26.35685 | 1355 ft | 131 kts | 41° |
| 2026-04-23 16:14 | 40.08419 | 26.36474 | 1183 ft | 131 kts | 41° |
| 2026-04-23 16:14 | 40.09092 | 26.37275 | 1013 ft | 131 kts | 43° |
| 2026-04-23 16:15 | 40.09734 | 26.38110 | 826 ft | 130 kts | 44° |
| 2026-04-23 16:15 | 40.10408 | 26.38891 | 681 ft | 131 kts | 38° |
| 2026-04-23 16:15 | 40.11094 | 26.39655 | 515 ft | 129 kts | 41° |
| 2026-04-23 16:15 | 40.11758 | 26.40435 | 359 ft | 126 kts | 40° |
| 2026-04-23 16:16 | 40.12419 | 26.41169 | 180 ft | 125 kts | 40° |
| 2026-04-23 16:16 | 40.13067 | 26.41903 | 42 ft | 123 kts | 41° |
| 2026-04-23 16:16 | 40.13635 | 26.42540 | 28 ft | 83 kts | 41° |
| 2026-04-23 16:16 | 40.13866 | 26.42807 | 28 ft | 30 kts | 42° |
| 2026-04-23 16:17 | 40.14049 | 26.43008 | 31 ft | 38 kts | 39° |
| 2026-04-23 16:17 | 40.14244 | 26.43187 | 31 ft | 29 kts | 6° |
| 2026-04-23 16:17 | 40.14288 | 26.43285 | 30 ft | 4 kts | 198° |
| 2026-04-23 16:17 | 40.14274 | 26.43273 | 30 ft | 4 kts | 214° |
| 2026-04-23 16:18 | 40.14206 | 26.43195 | 31 ft | 21 kts | 224° |
| 2026-04-23 16:18 | 40.14062 | 26.43032 | 31 ft | 34 kts | 223° |
| 2026-04-23 16:18 | 40.13882 | 26.42831 | 29 ft | 26 kts | 219° |
| 2026-04-23 16:18 | 40.13891 | 26.42699 | 28 ft | 13 kts | 312° |
| 2026-04-23 16:19 | 40.13937 | 26.42624 | 29 ft | 9 kts | 292° |
| 2026-04-23 16:19 | 40.13958 | 26.42585 | 29 ft | 0 kts | 313° |